createdAt,value
2022-08-18T00:01:11.885Z,22.18
2022-08-18T00:03:57.324Z,22.13
2022-08-18T00:06:31.389Z,21.77
2022-08-18T00:09:00.638Z,21.91
2022-08-18T00:11:41.058Z,22.07
2022-08-18T00:14:21.243Z,21.55
2022-08-18T00:16:53.411Z,21.43
2022-08-18T00:19:43.623Z,21.67
2022-08-18T00:22:14.674Z,21.96
2022-08-18T00:24:47.707Z,22.29
2022-08-18T00:27:19.544Z,22.15
2022-08-18T00:29:50.469Z,22.28
2022-08-18T00:32:23.553Z,22.34
2022-08-18T00:34:53.389Z,22.20
2022-08-18T00:37:22.842Z,22.11
2022-08-18T00:39:52.656Z,22.30
2022-08-18T00:42:29.087Z,22.35
2022-08-18T00:45:01.251Z,22.39
2022-08-18T00:47:41.034Z,22.32
2022-08-18T00:50:15.418Z,22.37
2022-08-18T00:52:48.818Z,22.42
2022-08-18T00:55:18.242Z,22.45
2022-08-18T00:57:50.807Z,22.45
2022-08-18T01:00:19.393Z,22.49
2022-08-18T01:02:54.333Z,22.49
2022-08-18T01:05:28.313Z,22.42
2022-08-18T01:07:56.346Z,22.43
2022-08-18T01:10:27.026Z,22.20
2022-08-18T01:12:57.909Z,22.28
2022-08-18T01:15:30.203Z,22.26
2022-08-18T01:18:18.121Z,22.20
2022-08-18T01:21:13.081Z,22.27
2022-08-18T01:23:42.497Z,22.30
2022-08-18T01:26:10.839Z,22.29
2022-08-18T01:28:41.869Z,22.25
2022-08-18T01:31:10.769Z,22.13
2022-08-18T01:33:42.379Z,21.97
2022-08-18T01:36:16.599Z,21.54
2022-08-18T01:38:47.873Z,21.27
2022-08-18T01:41:28.411Z,21.08
2022-08-18T01:43:58.464Z,21.00
2022-08-18T01:46:28.051Z,21.00
2022-08-18T01:48:58.555Z,20.95
2022-08-18T01:51:40.580Z,21.09
2022-08-18T01:54:12.495Z,21.21
2022-08-18T01:56:42.124Z,20.89
2022-08-18T01:59:15.106Z,20.66
2022-08-18T02:01:52.777Z,20.36
2022-08-18T02:04:41.126Z,20.49
2022-08-18T02:07:11.837Z,20.72
2022-08-18T02:09:43.235Z,20.89
2022-08-18T02:12:14.344Z,21.30
2022-08-18T02:14:42.401Z,21.47
2022-08-18T02:17:12.114Z,21.60
2022-08-18T02:19:42.478Z,21.51
2022-08-18T02:22:12.577Z,21.59
2022-08-18T02:24:42.126Z,21.17
2022-08-18T02:27:11.658Z,21.43
2022-08-18T02:29:39.555Z,21.55
2022-08-18T02:32:08.665Z,21.25
2022-08-18T02:34:38.833Z,21.51
2022-08-18T02:37:06.603Z,21.65
2022-08-18T02:39:37.912Z,21.71
2022-08-18T02:42:09.133Z,21.76
2022-08-18T02:44:37.211Z,21.82
2022-08-18T02:47:05.400Z,21.84
2022-08-18T02:49:33.224Z,21.84
2022-08-18T02:52:01.180Z,21.85
2022-08-18T02:54:29.201Z,21.88
2022-08-18T02:56:57.440Z,21.94
2022-08-18T02:59:28.493Z,21.98
2022-08-18T03:02:00.016Z,21.96
2022-08-18T03:04:30.917Z,21.79
2022-08-18T03:07:02.309Z,21.42
2022-08-18T03:09:30.770Z,21.45
2022-08-18T03:11:59.062Z,21.55
2022-08-18T03:14:29.151Z,21.32
2022-08-18T03:16:59.851Z,21.62
2022-08-18T03:19:29.666Z,21.65
2022-08-18T03:22:02.987Z,21.46
2022-08-18T03:24:32.960Z,21.16
2022-08-18T03:27:02.180Z,21.01
2022-08-18T03:29:32.997Z,21.33
2022-08-18T03:32:02.014Z,21.50
2022-08-18T03:34:30.507Z,21.54
2022-08-18T03:36:58.661Z,21.38
2022-08-18T03:39:29.468Z,21.51
2022-08-18T03:42:01.094Z,21.59
2022-08-18T03:44:33.437Z,21.59
2022-08-18T03:47:02.798Z,21.39
2022-08-18T03:49:31.503Z,21.42
2022-08-18T03:52:02.419Z,21.46
2022-08-18T03:54:33.650Z,20.95
2022-08-18T03:57:02.002Z,20.60
2022-08-18T03:59:33.356Z,20.58
2022-08-18T04:02:04.843Z,21.07
2022-08-18T04:04:32.675Z,21.26
2022-08-18T04:07:04.715Z,21.36
2022-08-18T04:09:34.511Z,21.27
2022-08-18T04:12:10.395Z,21.38
2022-08-18T04:14:48.054Z,21.47
2022-08-18T04:17:16.449Z,21.54
2022-08-18T04:19:44.348Z,21.63
2022-08-18T04:22:17.188Z,21.60
2022-08-18T04:24:45.650Z,21.58
2022-08-18T04:27:14.173Z,21.62
2022-08-18T04:29:45.418Z,21.66
2022-08-18T04:32:13.338Z,21.67
2022-08-18T04:34:41.310Z,21.68
2022-08-18T04:37:09.759Z,21.68
2022-08-18T04:39:38.231Z,21.70
2022-08-18T04:42:06.245Z,21.32
2022-08-18T04:44:34.655Z,21.02
2022-08-18T04:47:03.990Z,21.28
2022-08-18T04:49:34.010Z,21.47
2022-08-18T04:52:34.331Z,21.58
2022-08-18T04:55:08.232Z,21.56
2022-08-18T04:57:36.382Z,21.29
2022-08-18T05:00:06.900Z,21.35
2022-08-18T05:02:36.110Z,21.56
2022-08-18T05:05:04.647Z,21.69
2022-08-18T05:07:33.217Z,21.66
2022-08-18T05:10:01.118Z,21.72
2022-08-18T05:12:29.532Z,21.91
2022-08-18T05:14:57.886Z,21.90
2022-08-18T05:17:30.077Z,21.99
2022-08-18T05:20:01.691Z,22.09
2022-08-18T05:22:31.060Z,22.19
2022-08-18T05:25:00.325Z,22.14
2022-08-18T05:27:32.853Z,22.27
2022-08-18T05:30:00.760Z,22.43
2022-08-18T05:32:47.232Z,22.56
2022-08-18T05:35:24.341Z,22.44
2022-08-18T05:38:06.602Z,22.61
2022-08-18T05:40:36.251Z,22.60
2022-08-18T05:43:06.003Z,22.74
2022-08-18T05:45:34.722Z,22.73
2022-08-18T05:48:02.961Z,22.89
2022-08-18T05:50:36.452Z,23.02
2022-08-18T05:53:13.513Z,22.89
2022-08-18T05:56:05.555Z,22.30
2022-08-18T05:58:38.406Z,22.15
2022-08-18T06:01:13.157Z,21.76
2022-08-18T06:03:49.563Z,22.39
2022-08-18T06:06:24.155Z,22.79
2022-08-18T06:09:00.019Z,22.94
2022-08-18T06:11:28.307Z,23.02
2022-08-18T06:14:00.133Z,23.13
2022-08-18T06:16:49.554Z,23.23
2022-08-18T06:19:36.059Z,23.34
2022-08-18T06:22:17.468Z,23.35
2022-08-18T06:24:56.487Z,23.36
2022-08-18T06:27:40.972Z,23.42
2022-08-18T06:30:15.167Z,23.41
2022-08-18T06:33:18.256Z,23.54
2022-08-18T06:35:50.263Z,22.82
2022-08-18T06:38:39.684Z,22.91
2022-08-18T06:41:42.510Z,23.24
2022-08-18T06:44:05.773Z,23.56
2022-08-18T06:46:42.198Z,23.80
2022-08-18T06:49:12.971Z,23.81
2022-08-18T06:51:41.395Z,23.35
2022-08-18T06:54:29.345Z,22.46
2022-08-18T06:56:58.805Z,23.13
2022-08-18T06:59:29.462Z,23.50
2022-08-18T07:02:01.561Z,23.47
2022-08-18T07:04:37.474Z,23.73
2022-08-18T07:07:21.448Z,22.99
2022-08-18T07:09:50.760Z,23.23
2022-08-18T07:12:30.513Z,23.83
2022-08-18T07:15:02.494Z,23.47
2022-08-18T07:17:42.754Z,23.89
2022-08-18T07:20:21.856Z,23.91
2022-08-18T07:22:55.746Z,22.86
2022-08-18T07:25:28.726Z,23.71
2022-08-18T07:27:57.216Z,23.39
2022-08-18T07:30:32.407Z,23.30
2022-08-18T07:33:12.083Z,23.51
2022-08-18T07:35:46.508Z,22.52
2022-08-18T07:38:41.500Z,22.39
2022-08-18T07:41:16.042Z,22.93
2022-08-18T07:44:02.852Z,23.17
2022-08-18T07:46:37.672Z,23.22
2022-08-18T07:49:08.160Z,23.56
2022-08-18T07:51:47.779Z,23.49
2022-08-18T07:54:50.172Z,23.42
2022-08-18T07:57:35.408Z,23.55
2022-08-18T08:00:30.563Z,23.66
2022-08-18T08:03:22.315Z,23.84
2022-08-18T08:05:57.527Z,23.94
2022-08-18T08:08:31.501Z,23.79
2022-08-18T08:11:10.645Z,23.60
2022-08-18T08:13:56.227Z,23.85
2022-08-18T08:16:36.385Z,23.92
2022-08-18T08:19:15.771Z,23.95
2022-08-18T08:21:52.860Z,23.79
2022-08-18T08:24:30.012Z,23.62
2022-08-18T08:27:06.222Z,23.84
2022-08-18T08:29:46.198Z,22.34
2022-08-18T08:32:20.696Z,22.09
2022-08-18T08:34:52.913Z,22.27
2022-08-18T08:37:25.543Z,22.65
2022-08-18T08:39:58.999Z,23.30
2022-08-18T08:42:40.517Z,23.65
2022-08-18T08:45:15.077Z,22.94
2022-08-18T08:47:50.368Z,22.84
2022-08-18T08:50:24.023Z,23.69
2022-08-18T08:52:57.342Z,23.47
2022-08-18T08:55:28.307Z,23.41
2022-08-18T08:58:02.998Z,23.16
2022-08-18T09:00:33.420Z,23.47
2022-08-18T09:03:15.535Z,23.34
2022-08-18T09:05:56.643Z,22.94
2022-08-18T09:08:40.327Z,23.92
2022-08-18T09:11:28.363Z,23.01
2022-08-18T09:14:24.645Z,23.51
2022-08-18T09:17:12.562Z,24.05
2022-08-18T09:19:56.554Z,24.11
2022-08-18T09:22:37.707Z,23.97
2022-08-18T09:25:11.387Z,24.62
2022-08-18T09:28:09.293Z,24.00
2022-08-18T09:30:55.260Z,23.90
2022-08-18T09:33:35.617Z,24.44
2022-08-18T09:36:20.399Z,24.26
2022-08-18T09:39:10.222Z,23.99
2022-08-18T09:41:49.078Z,23.96
2022-08-18T09:44:50.955Z,25.09
2022-08-18T09:47:52.290Z,25.44
2022-08-18T09:50:53.142Z,25.30
2022-08-18T09:53:53.555Z,25.82
2022-08-18T09:56:55.774Z,26.31
2022-08-18T09:59:59.233Z,25.63
2022-08-18T10:03:07.137Z,26.31
2022-08-18T10:05:38.988Z,25.20
2022-08-18T10:08:42.765Z,24.93
2022-08-18T10:11:32.069Z,25.98
2022-08-18T10:14:24.669Z,27.30
2022-08-18T10:19:57.310Z,27.05
2022-08-18T10:22:43.482Z,27.02
2022-08-18T10:25:22.813Z,27.83
2022-08-18T10:28:05.378Z,28.88
2022-08-18T10:31:06.489Z,26.68
2022-08-18T10:34:00.412Z,27.00
2022-08-18T10:36:46.598Z,26.99
2022-08-18T10:39:19.839Z,26.13
2022-08-18T10:41:58.017Z,26.33
2022-08-18T10:44:29.492Z,26.52
2022-08-18T10:47:01.155Z,26.58
2022-08-18T10:49:33.178Z,27.58
2022-08-18T10:52:46.309Z,27.78
2022-08-18T10:55:48.792Z,28.06
2022-08-18T10:58:30.349Z,27.70
2022-08-18T11:01:18.014Z,26.68
2022-08-18T11:07:08.473Z,28.17
2022-08-18T11:09:41.780Z,28.38
2022-08-18T11:12:13.632Z,28.23
2022-08-18T11:15:22.805Z,27.54
2022-08-18T11:18:03.112Z,26.89
2022-08-18T11:20:33.724Z,27.14
2022-08-18T11:23:04.298Z,26.63
2022-08-18T11:26:34.225Z,26.73
2022-08-18T11:29:26.902Z,26.78
2022-08-18T11:32:02.057Z,27.02
2022-08-18T11:34:38.503Z,27.51
2022-08-18T11:37:20.866Z,26.69
2022-08-18T11:39:51.833Z,26.65
2022-08-18T11:42:27.859Z,26.42
2022-08-18T11:45:05.700Z,26.42
2022-08-18T11:47:33.823Z,27.15
2022-08-18T11:50:12.053Z,26.49
2022-08-18T11:52:53.481Z,26.89
2022-08-18T11:55:30.088Z,27.72
2022-08-18T11:58:00.287Z,26.49
2022-08-18T12:00:55.226Z,26.31
2022-08-18T12:03:31.955Z,26.61
2022-08-18T12:06:10.868Z,26.77
2022-08-18T12:08:55.763Z,26.57
2022-08-18T12:11:29.171Z,27.14
2022-08-18T12:16:57.466Z,27.41
2022-08-18T12:19:30.778Z,27.65
2022-08-18T12:22:00.481Z,27.71
2022-08-18T12:24:36.961Z,27.27
2022-08-18T12:27:12.383Z,27.62
2022-08-18T12:32:49.192Z,27.33
2022-08-18T12:35:21.634Z,27.60
2022-08-18T12:38:00.354Z,26.81
2022-08-18T12:40:31.882Z,27.59
2022-08-18T12:43:00.023Z,27.71
2022-08-18T12:45:30.917Z,29.20
2022-08-18T12:48:04.027Z,28.25
2022-08-18T12:50:36.162Z,27.91
2022-08-18T12:53:05.776Z,28.12
2022-08-18T12:55:43.464Z,28.62
2022-08-18T12:58:12.219Z,29.05
2022-08-18T13:00:42.638Z,29.41
2022-08-18T13:03:11.928Z,28.76
2022-08-18T13:05:39.947Z,27.71
2022-08-18T13:08:30.540Z,29.06
2022-08-18T13:11:14.736Z,28.20
2022-08-18T13:13:44.409Z,28.12
2022-08-18T13:16:16.601Z,27.81
2022-08-18T13:19:02.932Z,27.31
2022-08-18T13:21:39.142Z,28.51
2022-08-18T13:24:10.280Z,27.76
2022-08-18T13:26:45.663Z,28.89
2022-08-18T13:29:15.472Z,28.34
2022-08-18T13:31:55.718Z,28.89
2022-08-18T13:34:29.783Z,29.29
2022-08-18T13:36:58.985Z,29.13
2022-08-18T13:39:33.617Z,29.14
2022-08-18T13:42:28.407Z,28.79
2022-08-18T13:44:53.331Z,27.99
2022-08-18T13:47:22.164Z,27.94
2022-08-18T13:49:58.984Z,27.87
2022-08-18T13:52:44.439Z,27.87
2022-08-18T13:55:16.799Z,29.41
2022-08-18T13:57:53.592Z,29.60
2022-08-18T14:00:30.740Z,28.55
2022-08-18T14:03:02.206Z,27.76
2022-08-18T14:05:50.962Z,27.45
2022-08-18T14:08:19.944Z,28.71
2022-08-18T14:10:50.685Z,29.41
2022-08-18T14:13:20.693Z,29.27
2022-08-18T14:15:54.771Z,29.13
2022-08-18T14:18:28.655Z,28.92
2022-08-18T14:21:16.209Z,29.28
2022-08-18T14:24:00.709Z,28.98
2022-08-18T14:26:46.333Z,28.44
2022-08-18T14:29:46.454Z,28.33
2022-08-18T14:32:09.339Z,28.32
2022-08-18T14:34:50.720Z,28.48
2022-08-18T14:37:20.848Z,28.34
2022-08-18T14:39:53.739Z,28.86
2022-08-18T14:42:41.109Z,29.13
2022-08-18T14:45:26.387Z,29.02
2022-08-18T14:47:59.233Z,28.49
2022-08-18T14:50:27.548Z,28.19
2022-08-18T14:52:57.108Z,29.40
2022-08-18T14:55:27.617Z,28.49
2022-08-18T14:57:59.483Z,28.36
2022-08-18T15:00:29.011Z,29.09
2022-08-18T15:02:59.809Z,29.55
2022-08-18T15:05:33.706Z,29.44
2022-08-18T15:08:09.022Z,29.13
2022-08-18T15:10:39.017Z,28.93
2022-08-18T15:13:07.269Z,29.15
2022-08-18T15:15:42.327Z,29.78
2022-08-18T15:18:22.707Z,28.83
2022-08-18T15:21:10.306Z,29.32
2022-08-18T15:24:19.523Z,28.41
2022-08-18T15:26:51.418Z,29.44
2022-08-18T15:29:22.537Z,28.66
2022-08-18T15:31:59.838Z,29.06
2022-08-18T15:34:33.128Z,29.04
2022-08-18T15:37:14.421Z,29.11
2022-08-18T15:39:44.170Z,27.96
2022-08-18T15:42:14.145Z,28.96
2022-08-18T15:44:44.811Z,28.93
2022-08-18T15:47:12.679Z,29.41
2022-08-18T15:49:40.612Z,29.59
2022-08-18T15:52:12.631Z,29.46
2022-08-18T15:54:42.347Z,28.53
2022-08-18T15:57:36.023Z,29.33
2022-08-18T16:00:05.903Z,28.86
2022-08-18T16:02:40.114Z,28.82
2022-08-18T16:05:10.433Z,28.81
2022-08-18T16:07:45.031Z,29.10
2022-08-18T16:10:13.654Z,28.47
2022-08-18T16:12:45.685Z,28.66
2022-08-18T16:15:15.359Z,28.13
2022-08-18T16:17:49.620Z,28.69
2022-08-18T16:20:18.628Z,28.62
2022-08-18T16:22:46.994Z,27.89
2022-08-18T16:25:16.425Z,29.04
2022-08-18T16:27:47.781Z,28.75
2022-08-18T16:30:20.658Z,28.76
2022-08-18T16:32:48.882Z,28.36
2022-08-18T16:35:20.058Z,28.12
2022-08-18T16:37:49.651Z,28.15
2022-08-18T16:40:19.130Z,28.13
2022-08-18T16:42:54.142Z,28.20
2022-08-18T16:45:22.697Z,28.37
2022-08-18T16:47:50.636Z,27.70
2022-08-18T16:50:19.333Z,27.39
2022-08-18T16:52:47.304Z,27.75
2022-08-18T16:55:15.205Z,27.64
2022-08-18T16:58:02.386Z,27.87
2022-08-18T17:00:55.225Z,27.65
2022-08-18T17:03:41.311Z,27.77
2022-08-18T17:06:11.831Z,27.50
2022-08-18T17:08:41.006Z,27.44
2022-08-18T17:11:11.693Z,27.33
2022-08-18T17:13:43.240Z,27.56
2022-08-18T17:16:13.161Z,27.17
2022-08-18T17:18:42.435Z,26.90
2022-08-18T17:21:13.791Z,27.40
2022-08-18T17:23:44.869Z,27.51
2022-08-18T17:26:18.492Z,27.53
2022-08-18T17:28:53.722Z,27.43
2022-08-18T17:31:25.988Z,27.51
2022-08-18T17:33:58.440Z,27.44
2022-08-18T17:36:34.596Z,27.37
2022-08-18T17:39:06.229Z,26.80
2022-08-18T17:41:57.105Z,27.02
2022-08-18T17:44:28.650Z,26.89
2022-08-18T17:47:03.727Z,26.58
2022-08-18T17:50:26.969Z,25.93
2022-08-18T17:52:47.118Z,26.30
2022-08-18T17:55:24.904Z,25.69
2022-08-18T17:57:58.653Z,25.73
2022-08-18T18:00:28.064Z,25.66
2022-08-18T18:02:58.262Z,25.45
2022-08-18T18:05:36.416Z,25.38
2022-08-18T18:08:05.204Z,25.57
2022-08-18T18:11:02.265Z,25.94
2022-08-18T18:13:32.382Z,25.58
2022-08-18T18:16:02.363Z,25.14
2022-08-18T18:18:38.118Z,24.90
2022-08-18T18:21:21.546Z,25.16
2022-08-18T18:23:54.111Z,25.50
2022-08-18T18:26:29.323Z,25.22
2022-08-18T18:29:29.127Z,24.96
2022-08-18T18:32:01.677Z,24.90
2022-08-18T18:34:39.405Z,25.03
2022-08-18T18:37:25.145Z,24.75
2022-08-18T18:39:58.003Z,24.79
2022-08-18T18:42:28.275Z,24.97
2022-08-18T18:44:59.089Z,24.48
2022-08-18T18:47:54.523Z,24.67
2022-08-18T18:50:31.079Z,24.76
2022-08-18T18:53:10.876Z,24.56
2022-08-18T18:55:44.867Z,25.01
2022-08-18T18:58:22.509Z,24.72
2022-08-18T19:00:55.930Z,24.40
2022-08-18T19:03:32.174Z,24.70
2022-08-18T19:06:13.989Z,24.88
2022-08-18T19:08:51.939Z,24.94
2022-08-18T19:11:29.016Z,24.53
2022-08-18T19:14:02.996Z,24.75
2022-08-18T19:16:41.228Z,24.83
2022-08-18T19:19:37.896Z,24.51
2022-08-18T19:22:14.968Z,25.06
2022-08-18T19:24:53.490Z,25.28
2022-08-18T19:27:28.053Z,25.04
2022-08-18T19:30:01.637Z,24.64
2022-08-18T19:32:42.774Z,24.74
2022-08-18T19:35:16.244Z,24.65
2022-08-18T19:38:09.345Z,24.66
2022-08-18T19:40:45.582Z,24.71
2022-08-18T19:43:27.547Z,24.85
2022-08-18T19:46:00.743Z,25.32
2022-08-18T19:48:35.904Z,24.91
2022-08-18T19:51:10.508Z,24.95
2022-08-18T19:53:55.144Z,25.21
2022-08-18T19:56:42.041Z,25.19
2022-08-18T19:59:34.124Z,25.25
2022-08-18T20:02:17.806Z,25.30
2022-08-18T20:05:14.316Z,25.37
2022-08-18T20:07:57.481Z,25.33
2022-08-18T20:10:53.223Z,25.43
2022-08-18T20:13:33.334Z,25.37
2022-08-18T20:16:14.184Z,25.37
2022-08-18T20:18:44.822Z,25.48
2022-08-18T20:21:47.770Z,25.49
2022-08-18T20:24:39.629Z,25.44
2022-08-18T20:27:35.474Z,25.52
2022-08-18T20:30:31.984Z,25.29
2022-08-18T20:33:19.925Z,25.24
2022-08-18T20:36:02.308Z,25.12
2022-08-18T20:38:35.145Z,25.30
2022-08-18T20:41:39.265Z,25.41
2022-08-18T20:44:45.492Z,25.22
2022-08-18T20:47:55.657Z,25.25
2022-08-18T20:50:47.618Z,25.15
2022-08-18T20:53:32.769Z,24.76
2022-08-18T20:56:31.295Z,25.07
2022-08-18T20:59:08.679Z,25.01
2022-08-18T21:01:39.103Z,24.90
2022-08-18T21:04:08.209Z,24.85
2022-08-18T21:06:41.971Z,25.07
2022-08-18T21:09:10.506Z,24.92
2022-08-18T21:11:42.992Z,24.95
2022-08-18T21:14:12.915Z,24.91
2022-08-18T21:16:45.042Z,24.98
2022-08-18T21:19:20.610Z,24.84
2022-08-18T21:21:51.675Z,24.93
2022-08-18T21:24:23.675Z,24.90
2022-08-18T21:26:56.697Z,24.81
2022-08-18T21:29:24.904Z,24.67
2022-08-18T21:32:07.997Z,24.66
2022-08-18T21:34:44.391Z,24.72
2022-08-18T21:37:15.102Z,24.81
2022-08-18T21:39:55.178Z,24.82
2022-08-18T21:42:27.954Z,24.79
2022-08-18T21:44:57.429Z,24.76
2022-08-18T21:47:31.721Z,24.52
2022-08-18T21:50:09.336Z,24.65
2022-08-18T21:52:40.578Z,24.72
2022-08-18T21:55:23.311Z,24.80
2022-08-18T21:58:02.670Z,24.85
2022-08-18T22:00:33.868Z,24.82
2022-08-18T22:03:28.347Z,24.71
2022-08-18T22:06:03.170Z,24.64
2022-08-18T22:08:35.070Z,24.69
2022-08-18T22:11:51.901Z,24.63
2022-08-18T22:14:36.240Z,24.64
2022-08-18T22:17:33.771Z,24.63
2022-08-18T22:20:48.627Z,24.55
2022-08-18T22:23:55.309Z,24.30
2022-08-18T22:26:27.207Z,24.50
2022-08-18T22:29:00.782Z,24.44
2022-08-18T22:31:31.467Z,24.27
2022-08-18T22:34:03.253Z,24.15
2022-08-18T22:36:35.477Z,24.27
2022-08-18T22:39:05.919Z,24.23
2022-08-18T22:41:36.864Z,24.25
2022-08-18T22:44:05.529Z,24.26
2022-08-18T22:46:34.144Z,24.23
2022-08-18T22:49:03.245Z,24.21
2022-08-18T22:51:33.335Z,23.79
2022-08-18T22:54:01.231Z,23.57
2022-08-18T22:56:34.712Z,23.97
2022-08-18T22:59:13.669Z,24.06
2022-08-18T23:01:46.150Z,24.01
2022-08-18T23:04:15.841Z,23.56
2022-08-18T23:06:52.031Z,23.88
2022-08-18T23:09:22.649Z,23.93
2022-08-18T23:11:53.385Z,23.70
2022-08-18T23:14:22.233Z,23.87
2022-08-18T23:16:50.397Z,23.91
2022-08-18T23:19:20.232Z,23.79
2022-08-18T23:21:50.912Z,23.79
2022-08-18T23:24:21.042Z,23.90
2022-08-18T23:26:50.027Z,23.73
2022-08-18T23:29:21.406Z,23.81
2022-08-18T23:31:51.380Z,23.35
2022-08-18T23:34:21.509Z,23.64
2022-08-18T23:36:54.713Z,23.82
2022-08-18T23:39:22.916Z,23.99
2022-08-18T23:41:51.125Z,23.88
2022-08-18T23:44:20.631Z,23.84
2022-08-18T23:46:52.499Z,23.73
2022-08-18T23:49:23.347Z,23.80
2022-08-18T23:51:55.945Z,23.89
2022-08-18T23:54:29.127Z,23.78
2022-08-18T23:56:57.093Z,23.59
2022-08-18T23:59:28.137Z,23.77
